Toledo, OH (43604)

10:59 PM EDT on April 25, 2015 (GMT -0400)
Point Place | | Change Station
CLOSE
Current Station
Personal Weather Station
Location: Toledo, OH
Elevation: 587 ft
Nearby Weather Stations

Elev 587 ft 41.71 °N, 83.49 °W | Updated 10 minutes ago

Overcast
Overcast
44.4 °F
Feels Like 43 °F
N
3.2
Wind Variable Wind from SSE

Today
High -- | Low -- °F
--% Chance of Precip.
Yesterday
High -- | Low -- °F
Precip. -- in
6:39 AM 8:25 PM
Waxing Crescent, 51% visible
Pressure 29.80 in
Visibility 10.0 miles
Clouds Overcast 10000 ft
Windchill 43 °F
Dew Point 33 °F
Humidity 64%
Rainfall 0.05 in
Snow Depth Not available.
UV 0 out of 12
Pollen 6.60 out of 12
Air Quality Not available.
Flu Activity Regional
METAR KTDZ 260253Z AUTO 05010G17KT 10SM OVC100 07/M01 A2979 RMK AO2 SLP091 T00721006 53003 TSNO

More Conditions Fewer Conditions

Pressure 29.80 in
Visibility 10.0 miles
Clouds Overcast 10000 ft
Windchill 43 °F
Dew Point 33 °F
Humidity 64%
Rainfall 0.05 in
Snow Depth Not available.
UV 0 out of 12
Pollen 6.60 out of 12
Air Quality Not available.
Flu Activity Regional
METAR KTDZ 260253Z AUTO 05010G17KT 10SM OVC100 07/M01 A2979 RMK AO2 SLP091 T00721006 53003 TSNO

More Conditions Fewer Conditions

10-Day Weather Forecast

Almanac

Astronomy

Apr. 25, 2015 Rise Set
Actual Time
Civil Twilight
Nautical Twilight
Astronomical Twilight
Moon
Length of Visible Light
Length of Day
Tomorrow will be .
, % of the Moon is Illuminated

Today's Extremes

State Highs State Lows

Community

WunderPhotos

Upload Photos

1,816,909 photos uploaded!

WunderBlogs® & News

Nearby

Air Quality

  Air Quality AQ Index Pollutant
Not available.

Snow Depth

Station Depth Elevation

Earthquake Activity

City Distance Mag. Time & Date
Minimum magnitude displayed is 2.5.

Coastal Water Temperatures

Place Temperature

Stations

Nearby Weather Stations

Station Location Temp. Windchill Dew Point Humidity Wind Precip. Elev Updated Type